Terminal Aerodrome Forecast
Issued by NWS

Home | Current Version | Previous Version | Text Only | Print | Product List | Glossary On
Versions: 1 2 3 4 5 6 7 8 9 10 11 12 13 14 15 16 17
000
FTUS46 KMTR 181100
TAFSNS
TAF
KSNS 181132Z 1812/1912 11006KT P6SM VCSH OVC045
     FM181600 29007KT P6SM VCSH OVC025
     FM182000 28012KT P6SM VCSH BKN025 OVC050
     FM190300 29006KT P6SM VCSH BKN015
     FM190700 VRB03KT P6SM VCSH OVC007=

USA.gov is the U.S. government's official web portal to all federal, state and local government web resources and services.